sensor_id;sensor_type;location;lat;lon;timestamp;temperature;humidity
8947;DHT22;4508;48.790;9.028;2022-12-28T00:01:56;2.50;99.90
8947;DHT22;4508;48.790;9.028;2022-12-28T00:04:22;2.50;99.90
8947;DHT22;4508;48.790;9.028;2022-12-28T00:06:49;2.50;99.90
8947;DHT22;4508;48.790;9.028;2022-12-28T00:09:17;2.40;99.90
8947;DHT22;4508;48.790;9.028;2022-12-28T00:11:44;2.30;99.90
8947;DHT22;4508;48.790;9.028;2022-12-28T00:14:10;2.40;99.90
8947;DHT22;4508;48.790;9.028;2022-12-28T00:16:40;2.30;99.90
8947;DHT22;4508;48.790;9.028;2022-12-28T00:19:10;2.30;99.90
8947;DHT22;4508;48.790;9.028;2022-12-28T00:21:37;2.30;99.90
8947;DHT22;4508;48.790;9.028;2022-12-28T00:24:04;2.40;99.90
8947;DHT22;4508;48.790;9.028;2022-12-28T00:26:33;2.40;99.90
8947;DHT22;4508;48.790;9.028;2022-12-28T00:29:01;2.40;99.90
8947;DHT22;4508;48.790;9.028;2022-12-28T00:31:27;2.50;99.90
8947;DHT22;4508;48.790;9.028;2022-12-28T00:33:55;2.50;99.90
8947;DHT22;4508;48.790;9.028;2022-12-28T00:36:22;2.50;99.90
8947;DHT22;4508;48.790;9.028;2022-12-28T00:38:49;2.50;99.90
8947;DHT22;4508;48.790;9.028;2022-12-28T00:41:16;2.50;99.90
8947;DHT22;4508;48.790;9.028;2022-12-28T00:43:42;2.60;99.90
8947;DHT22;4508;48.790;9.028;2022-12-28T00:46:10;2.60;99.90
8947;DHT22;4508;48.790;9.028;2022-12-28T00:48:37;2.50;99.90
8947;DHT22;4508;48.790;9.028;2022-12-28T00:51:07;2.60;99.90
8947;DHT22;4508;48.790;9.028;2022-12-28T00:53:34;2.80;99.90
8947;DHT22;4508;48.790;9.028;2022-12-28T00:56:05;2.60;99.90
8947;DHT22;4508;48.790;9.028;2022-12-28T00:58:32;2.70;99.90
8947;DHT22;4508;48.790;9.028;2022-12-28T01:00:59;2.60;99.90
8947;DHT22;4508;48.790;9.028;2022-12-28T01:03:26;2.70;99.90
8947;DHT22;4508;48.790;9.028;2022-12-28T01:05:52;2.80;99.90
8947;DHT22;4508;48.790;9.028;2022-12-28T01:08:20;2.80;99.90
8947;DHT22;4508;48.790;9.028;2022-12-28T01:10:47;2.80;99.90
8947;DHT22;4508;48.790;9.028;2022-12-28T01:13:14;2.90;99.90
8947;DHT22;4508;48.790;9.028;2022-12-28T01:15:41;2.80;99.90
8947;DHT22;4508;48.790;9.028;2022-12-28T01:18:07;2.90;99.90
8947;DHT22;4508;48.790;9.028;2022-12-28T01:20:34;2.80;99.90
8947;DHT22;4508;48.790;9.028;2022-12-28T01:23:01;2.70;99.90
8947;DHT22;4508;48.790;9.028;2022-12-28T01:25:29;2.80;99.90
8947;DHT22;4508;48.790;9.028;2022-12-28T01:27:56;3.00;99.90
8947;DHT22;4508;48.790;9.028;2022-12-28T01:30:23;2.80;99.90
8947;DHT22;4508;48.790;9.028;2022-12-28T01:32:49;2.90;99.90
8947;DHT22;4508;48.790;9.028;2022-12-28T01:35:16;2.90;99.90
8947;DHT22;4508;48.790;9.028;2022-12-28T01:37:43;3.00;99.90
8947;DHT22;4508;48.790;9.028;2022-12-28T01:40:13;3.00;99.90
8947;DHT22;4508;48.790;9.028;2022-12-28T01:42:41;3.00;99.90
8947;DHT22;4508;48.790;9.028;2022-12-28T01:45:15;3.10;99.90
8947;DHT22;4508;48.790;9.028;2022-12-28T01:47:43;3.10;99.90
8947;DHT22;4508;48.790;9.028;2022-12-28T01:50:14;3.10;99.90
8947;DHT22;4508;48.790;9.028;2022-12-28T01:52:44;3.10;99.90
8947;DHT22;4508;48.790;9.028;2022-12-28T01:55:17;3.00;99.90
8947;DHT22;4508;48.790;9.028;2022-12-28T01:57:49;3.10;99.90
8947;DHT22;4508;48.790;9.028;2022-12-28T02:00:17;3.20;99.90
8947;DHT22;4508;48.790;9.028;2022-12-28T02:02:49;3.30;99.90
8947;DHT22;4508;48.790;9.028;2022-12-28T02:05:18;3.30;99.90
8947;DHT22;4508;48.790;9.028;2022-12-28T02:07:51;3.40;99.90
8947;DHT22;4508;48.790;9.028;2022-12-28T02:10:19;3.30;99.90
8947;DHT22;4508;48.790;9.028;2022-12-28T02:12:47;3.60;99.90
8947;DHT22;4508;48.790;9.028;2022-12-28T02:15:14;3.40;99.90
8947;DHT22;4508;48.790;9.028;2022-12-28T02:17:40;3.40;99.90
8947;DHT22;4508;48.790;9.028;2022-12-28T02:20:08;3.50;99.90
8947;DHT22;4508;48.790;9.028;2022-12-28T02:23:08;3.20;99.90
8947;DHT22;4508;48.790;9.028;2022-12-28T02:29:05;3.60;99.90
8947;DHT22;4508;48.790;9.028;2022-12-28T02:31:38;3.60;99.90
8947;DHT22;4508;48.790;9.028;2022-12-28T02:34:13;3.60;99.90
8947;DHT22;4508;48.790;9.028;2022-12-28T02:36:46;3.60;99.90
8947;DHT22;4508;48.790;9.028;2022-12-28T02:39:19;3.50;99.90
8947;DHT22;4508;48.790;9.028;2022-12-28T02:41:49;3.50;99.90
8947;DHT22;4508;48.790;9.028;2022-12-28T02:44:18;3.50;99.90
8947;DHT22;4508;48.790;9.028;2022-12-28T02:46:59;3.50;99.90
8947;DHT22;4508;48.790;9.028;2022-12-28T02:49:43;3.50;99.90
8947;DHT22;4508;48.790;9.028;2022-12-28T02:52:38;3.50;99.90
8947;DHT22;4508;48.790;9.028;2022-12-28T02:55:16;3.50;99.90
8947;DHT22;4508;48.790;9.028;2022-12-28T02:58:29;3.60;99.90
8947;DHT22;4508;48.790;9.028;2022-12-28T03:01:13;3.60;99.90
8947;DHT22;4508;48.790;9.028;2022-12-28T03:03:55;3.70;99.90
8947;DHT22;4508;48.790;9.028;2022-12-28T03:06:32;3.70;99.90
8947;DHT22;4508;48.790;9.028;2022-12-28T03:09:30;3.70;99.90
8947;DHT22;4508;48.790;9.028;2022-12-28T03:12:04;3.60;99.90
8947;DHT22;4508;48.790;9.028;2022-12-28T03:14:37;3.70;99.90
8947;DHT22;4508;48.790;9.028;2022-12-28T03:17:08;3.60;99.90
8947;DHT22;4508;48.790;9.028;2022-12-28T03:19:57;3.50;99.90
8947;DHT22;4508;48.790;9.028;2022-12-28T03:22:42;3.50;99.90
8947;DHT22;4508;48.790;9.028;2022-12-28T03:25:31;3.50;99.90
8947;DHT22;4508;48.790;9.028;2022-12-28T03:28:20;3.50;99.90
8947;DHT22;4508;48.790;9.028;2022-12-28T03:31:11;3.50;99.90
8947;DHT22;4508;48.790;9.028;2022-12-28T03:33:42;3.50;99.90
8947;DHT22;4508;48.790;9.028;2022-12-28T03:36:14;3.40;99.90
8947;DHT22;4508;48.790;9.028;2022-12-28T03:38:48;3.70;99.90
8947;DHT22;4508;48.790;9.028;2022-12-28T03:41:21;3.50;99.90
8947;DHT22;4508;48.790;9.028;2022-12-28T03:43:52;3.50;99.90
8947;DHT22;4508;48.790;9.028;2022-12-28T03:46:20;3.40;99.90
8947;DHT22;4508;48.790;9.028;2022-12-28T03:48:50;3.70;99.90
8947;DHT22;4508;48.790;9.028;2022-12-28T03:51:20;3.60;99.90
8947;DHT22;4508;48.790;9.028;2022-12-28T03:53:48;3.60;99.90
8947;DHT22;4508;48.790;9.028;2022-12-28T03:56:17;3.60;99.90
8947;DHT22;4508;48.790;9.028;2022-12-28T03:58:44;3.70;99.90
8947;DHT22;4508;48.790;9.028;2022-12-28T04:01:11;3.60;99.90
8947;DHT22;4508;48.790;9.028;2022-12-28T04:03:38;3.60;99.90
8947;DHT22;4508;48.790;9.028;2022-12-28T04:06:07;3.60;99.90
8947;DHT22;4508;48.790;9.028;2022-12-28T04:08:34;3.60;99.90
8947;DHT22;4508;48.790;9.028;2022-12-28T04:11:01;3.60;99.90
8947;DHT22;4508;48.790;9.028;2022-12-28T04:13:28;3.60;99.90
8947;DHT22;4508;48.790;9.028;2022-12-28T04:15:57;3.60;99.90
8947;DHT22;4508;48.790;9.028;2022-12-28T04:18:25;3.60;99.90
8947;DHT22;4508;48.790;9.028;2022-12-28T04:20:52;3.60;99.90
8947;DHT22;4508;48.790;9.028;2022-12-28T04:23:20;3.80;99.90
8947;DHT22;4508;48.790;9.028;2022-12-28T04:25:58;3.70;99.90
8947;DHT22;4508;48.790;9.028;2022-12-28T04:28:25;3.80;99.90
8947;DHT22;4508;48.790;9.028;2022-12-28T04:30:53;3.80;99.90
8947;DHT22;4508;48.790;9.028;2022-12-28T04:33:21;3.90;99.90
8947;DHT22;4508;48.790;9.028;2022-12-28T04:35:48;3.90;99.90
8947;DHT22;4508;48.790;9.028;2022-12-28T04:38:15;3.90;99.90
8947;DHT22;4508;48.790;9.028;2022-12-28T04:40:43;3.90;99.90
8947;DHT22;4508;48.790;9.028;2022-12-28T04:43:10;3.90;99.90
8947;DHT22;4508;48.790;9.028;2022-12-28T04:45:37;3.80;99.90
8947;DHT22;4508;48.790;9.028;2022-12-28T04:48:04;3.90;99.90
8947;DHT22;4508;48.790;9.028;2022-12-28T04:50:31;3.80;99.90
8947;DHT22;4508;48.790;9.028;2022-12-28T04:52:58;4.00;99.90
8947;DHT22;4508;48.790;9.028;2022-12-28T04:55:25;4.00;99.90
8947;DHT22;4508;48.790;9.028;2022-12-28T04:57:53;4.00;99.90
8947;DHT22;4508;48.790;9.028;2022-12-28T05:00:19;4.00;99.90
8947;DHT22;4508;48.790;9.028;2022-12-28T05:02:46;4.20;99.90
8947;DHT22;4508;48.790;9.028;2022-12-28T05:05:13;4.30;99.90
8947;DHT22;4508;48.790;9.028;2022-12-28T05:07:40;4.30;99.90
8947;DHT22;4508;48.790;9.028;2022-12-28T05:10:07;4.30;99.90
8947;DHT22;4508;48.790;9.028;2022-12-28T05:12:34;4.40;99.90
8947;DHT22;4508;48.790;9.028;2022-12-28T05:15:02;4.30;99.90
8947;DHT22;4508;48.790;9.028;2022-12-28T05:17:29;4.30;99.90
8947;DHT22;4508;48.790;9.028;2022-12-28T05:19:55;4.40;99.90
8947;DHT22;4508;48.790;9.028;2022-12-28T05:22:22;4.30;99.90
8947;DHT22;4508;48.790;9.028;2022-12-28T05:24:49;4.30;99.90
8947;DHT22;4508;48.790;9.028;2022-12-28T05:27:15;4.40;99.90
8947;DHT22;4508;48.790;9.028;2022-12-28T05:29:42;4.30;99.90
8947;DHT22;4508;48.790;9.028;2022-12-28T05:32:10;4.40;99.90
8947;DHT22;4508;48.790;9.028;2022-12-28T05:34:37;4.30;99.90
8947;DHT22;4508;48.790;9.028;2022-12-28T05:37:03;4.50;99.90
8947;DHT22;4508;48.790;9.028;2022-12-28T05:39:30;4.50;99.90
8947;DHT22;4508;48.790;9.028;2022-12-28T05:41:57;4.60;99.90
8947;DHT22;4508;48.790;9.028;2022-12-28T05:44:25;4.30;99.90
8947;DHT22;4508;48.790;9.028;2022-12-28T05:49:20;4.30;99.90
8947;DHT22;4508;48.790;9.028;2022-12-28T05:51:48;4.30;99.90
8947;DHT22;4508;48.790;9.028;2022-12-28T05:54:16;4.30;99.90
8947;DHT22;4508;48.790;9.028;2022-12-28T05:56:43;4.30;99.90
8947;DHT22;4508;48.790;9.028;2022-12-28T05:59:12;4.40;99.90
8947;DHT22;4508;48.790;9.028;2022-12-28T06:01:41;4.30;99.90
8947;DHT22;4508;48.790;9.028;2022-12-28T06:04:13;4.30;99.90
8947;DHT22;4508;48.790;9.028;2022-12-28T06:06:42;4.20;99.90
8947;DHT22;4508;48.790;9.028;2022-12-28T06:09:09;4.40;99.90
8947;DHT22;4508;48.790;9.028;2022-12-28T06:11:36;4.30;99.90
8947;DHT22;4508;48.790;9.028;2022-12-28T06:14:03;4.30;99.90
8947;DHT22;4508;48.790;9.028;2022-12-28T06:16:31;4.40;99.90
8947;DHT22;4508;48.790;9.028;2022-12-28T06:18:58;4.20;99.90
8947;DHT22;4508;48.790;9.028;2022-12-28T06:21:27;4.40;99.90
8947;DHT22;4508;48.790;9.028;2022-12-28T06:23:57;4.50;99.90
8947;DHT22;4508;48.790;9.028;2022-12-28T06:26:25;4.50;99.90
8947;DHT22;4508;48.790;9.028;2022-12-28T06:28:52;4.40;99.90
8947;DHT22;4508;48.790;9.028;2022-12-28T06:31:20;4.40;99.90
8947;DHT22;4508;48.790;9.028;2022-12-28T06:33:48;4.30;99.90
8947;DHT22;4508;48.790;9.028;2022-12-28T06:36:19;4.50;99.90
8947;DHT22;4508;48.790;9.028;2022-12-28T06:38:47;4.40;99.90
8947;DHT22;4508;48.790;9.028;2022-12-28T06:41:16;4.40;99.90
8947;DHT22;4508;48.790;9.028;2022-12-28T06:43:44;4.50;99.90
8947;DHT22;4508;48.790;9.028;2022-12-28T06:46:12;4.50;99.90
8947;DHT22;4508;48.790;9.028;2022-12-28T06:48:40;4.30;99.90
8947;DHT22;4508;48.790;9.028;2022-12-28T06:51:11;4.70;99.90
8947;DHT22;4508;48.790;9.028;2022-12-28T06:53:38;4.50;99.90
8947;DHT22;4508;48.790;9.028;2022-12-28T06:56:06;4.50;99.90
8947;DHT22;4508;48.790;9.028;2022-12-28T06:58:34;4.40;99.90
8947;DHT22;4508;48.790;9.028;2022-12-28T07:01:05;4.40;99.90
8947;DHT22;4508;48.790;9.028;2022-12-28T07:03:32;4.40;99.90
8947;DHT22;4508;48.790;9.028;2022-12-28T07:05:59;4.40;99.90
8947;DHT22;4508;48.790;9.028;2022-12-28T07:10:53;4.40;99.90
8947;DHT22;4508;48.790;9.028;2022-12-28T07:13:20;4.50;99.90
8947;DHT22;4508;48.790;9.028;2022-12-28T07:15:48;4.40;99.90
8947;DHT22;4508;48.790;9.028;2022-12-28T07:18:15;4.30;99.90
8947;DHT22;4508;48.790;9.028;2022-12-28T07:20:41;4.30;99.90
8947;DHT22;4508;48.790;9.028;2022-12-28T07:23:08;4.40;99.90
8947;DHT22;4508;48.790;9.028;2022-12-28T07:25:35;4.30;99.90
8947;DHT22;4508;48.790;9.028;2022-12-28T07:28:02;4.30;99.90
8947;DHT22;4508;48.790;9.028;2022-12-28T07:30:28;4.10;99.90
8947;DHT22;4508;48.790;9.028;2022-12-28T07:32:56;4.20;99.90
8947;DHT22;4508;48.790;9.028;2022-12-28T07:35:23;4.30;99.90
8947;DHT22;4508;48.790;9.028;2022-12-28T07:37:50;4.30;99.90
8947;DHT22;4508;48.790;9.028;2022-12-28T07:40:16;4.40;99.90
8947;DHT22;4508;48.790;9.028;2022-12-28T07:42:43;4.40;99.90
8947;DHT22;4508;48.790;9.028;2022-12-28T07:45:10;4.30;99.90
8947;DHT22;4508;48.790;9.028;2022-12-28T07:47:37;4.40;99.90
8947;DHT22;4508;48.790;9.028;2022-12-28T07:50:06;4.30;99.90
8947;DHT22;4508;48.790;9.028;2022-12-28T07:52:34;4.30;99.90
8947;DHT22;4508;48.790;9.028;2022-12-28T07:55:01;4.30;99.90
8947;DHT22;4508;48.790;9.028;2022-12-28T07:57:28;4.30;99.90
8947;DHT22;4508;48.790;9.028;2022-12-28T07:59:54;4.40;99.90
8947;DHT22;4508;48.790;9.028;2022-12-28T08:02:21;4.30;99.90
8947;DHT22;4508;48.790;9.028;2022-12-28T08:04:48;4.40;99.90
8947;DHT22;4508;48.790;9.028;2022-12-28T08:07:16;4.40;99.90
8947;DHT22;4508;48.790;9.028;2022-12-28T08:09:42;4.40;99.90
8947;DHT22;4508;48.790;9.028;2022-12-28T08:12:09;5.40;99.90
8947;DHT22;4508;48.790;9.028;2022-12-28T08:14:36;4.50;99.90
8947;DHT22;4508;48.790;9.028;2022-12-28T08:17:03;4.60;99.90
8947;DHT22;4508;48.790;9.028;2022-12-28T08:19:29;4.60;99.90
8947;DHT22;4508;48.790;9.028;2022-12-28T08:21:56;4.60;99.90
8947;DHT22;4508;48.790;9.028;2022-12-28T08:24:24;4.70;99.90
8947;DHT22;4508;48.790;9.028;2022-12-28T08:26:51;4.70;99.90
8947;DHT22;4508;48.790;9.028;2022-12-28T08:29:20;4.80;99.90
8947;DHT22;4508;48.790;9.028;2022-12-28T08:31:47;4.90;99.90
8947;DHT22;4508;48.790;9.028;2022-12-28T08:34:17;4.90;99.90
8947;DHT22;4508;48.790;9.028;2022-12-28T08:36:44;5.00;99.90
8947;DHT22;4508;48.790;9.028;2022-12-28T08:39:10;5.10;99.90
8947;DHT22;4508;48.790;9.028;2022-12-28T08:41:38;5.10;99.90
8947;DHT22;4508;48.790;9.028;2022-12-28T08:44:05;5.00;99.90
8947;DHT22;4508;48.790;9.028;2022-12-28T08:46:34;5.10;99.90
8947;DHT22;4508;48.790;9.028;2022-12-28T08:49:01;5.20;99.90
8947;DHT22;4508;48.790;9.028;2022-12-28T08:51:30;5.30;99.90
8947;DHT22;4508;48.790;9.028;2022-12-28T08:53:58;5.30;99.90
8947;DHT22;4508;48.790;9.028;2022-12-28T08:56:27;5.30;99.90
8947;DHT22;4508;48.790;9.028;2022-12-28T08:58:56;5.40;99.90
8947;DHT22;4508;48.790;9.028;2022-12-28T09:01:24;5.60;99.90
8947;DHT22;4508;48.790;9.028;2022-12-28T09:03:52;5.80;99.90
8947;DHT22;4508;48.790;9.028;2022-12-28T09:06:21;5.90;99.90
8947;DHT22;4508;48.790;9.028;2022-12-28T09:08:48;5.90;99.90
8947;DHT22;4508;48.790;9.028;2022-12-28T09:11:15;5.80;99.90
8947;DHT22;4508;48.790;9.028;2022-12-28T09:13:42;6.10;99.90
8947;DHT22;4508;48.790;9.028;2022-12-28T09:16:11;6.30;99.90
8947;DHT22;4508;48.790;9.028;2022-12-28T09:18:40;6.40;99.90
8947;DHT22;4508;48.790;9.028;2022-12-28T09:21:10;6.40;99.90
8947;DHT22;4508;48.790;9.028;2022-12-28T09:23:38;6.70;99.90
8947;DHT22;4508;48.790;9.028;2022-12-28T09:26:05;6.50;99.90
8947;DHT22;4508;48.790;9.028;2022-12-28T09:28:32;6.50;99.90
8947;DHT22;4508;48.790;9.028;2022-12-28T09:31:01;6.80;99.90
8947;DHT22;4508;48.790;9.028;2022-12-28T09:33:30;6.80;99.90
8947;DHT22;4508;48.790;9.028;2022-12-28T09:36:14;6.80;99.90
8947;DHT22;4508;48.790;9.028;2022-12-28T09:38:41;6.30;99.90
8947;DHT22;4508;48.790;9.028;2022-12-28T09:41:10;6.70;99.90
8947;DHT22;4508;48.790;9.028;2022-12-28T09:43:40;7.00;99.90
8947;DHT22;4508;48.790;9.028;2022-12-28T09:46:08;7.10;99.90
8947;DHT22;4508;48.790;9.028;2022-12-28T09:48:38;7.10;99.90
8947;DHT22;4508;48.790;9.028;2022-12-28T09:51:07;6.90;99.90
8947;DHT22;4508;48.790;9.028;2022-12-28T09:53:34;6.90;99.90
8947;DHT22;4508;48.790;9.028;2022-12-28T09:56:04;6.70;99.90
8947;DHT22;4508;48.790;9.028;2022-12-28T09:58:33;6.90;99.90
8947;DHT22;4508;48.790;9.028;2022-12-28T10:01:03;6.90;99.90
8947;DHT22;4508;48.790;9.028;2022-12-28T10:03:36;6.90;99.90
8947;DHT22;4508;48.790;9.028;2022-12-28T10:06:10;7.10;99.90
8947;DHT22;4508;48.790;9.028;2022-12-28T10:08:40;7.10;99.90
8947;DHT22;4508;48.790;9.028;2022-12-28T10:11:08;7.00;99.90
8947;DHT22;4508;48.790;9.028;2022-12-28T10:13:36;7.20;99.90
8947;DHT22;4508;48.790;9.028;2022-12-28T10:16:05;7.30;99.90
8947;DHT22;4508;48.790;9.028;2022-12-28T10:18:32;6.80;99.90
8947;DHT22;4508;48.790;9.028;2022-12-28T10:21:04;7.60;99.90
8947;DHT22;4508;48.790;9.028;2022-12-28T10:23:33;8.70;99.90
8947;DHT22;4508;48.790;9.028;2022-12-28T10:26:00;8.60;99.90
8947;DHT22;4508;48.790;9.028;2022-12-28T10:28:39;9.30;99.90
8947;DHT22;4508;48.790;9.028;2022-12-28T10:31:09;9.60;99.90
8947;DHT22;4508;48.790;9.028;2022-12-28T10:33:38;10.50;99.90
8947;DHT22;4508;48.790;9.028;2022-12-28T10:36:10;11.30;99.90
8947;DHT22;4508;48.790;9.028;2022-12-28T10:38:41;10.50;99.90
8947;DHT22;4508;48.790;9.028;2022-12-28T10:41:10;11.20;99.90
8947;DHT22;4508;48.790;9.028;2022-12-28T10:43:40;10.70;99.90
8947;DHT22;4508;48.790;9.028;2022-12-28T10:46:14;10.40;99.90
8947;DHT22;4508;48.790;9.028;2022-12-28T10:48:45;9.30;99.90
8947;DHT22;4508;48.790;9.028;2022-12-28T10:51:13;9.50;99.90
8947;DHT22;4508;48.790;9.028;2022-12-28T10:53:44;9.40;99.90
8947;DHT22;4508;48.790;9.028;2022-12-28T10:56:23;9.00;99.90
8947;DHT22;4508;48.790;9.028;2022-12-28T10:58:51;8.90;99.90
8947;DHT22;4508;48.790;9.028;2022-12-28T11:01:23;8.70;99.90
8947;DHT22;4508;48.790;9.028;2022-12-28T11:04:00;8.50;99.90
8947;DHT22;4508;48.790;9.028;2022-12-28T11:06:27;8.30;99.90
8947;DHT22;4508;48.790;9.028;2022-12-28T11:09:12;8.30;99.90
8947;DHT22;4508;48.790;9.028;2022-12-28T11:11:40;8.20;99.90
8947;DHT22;4508;48.790;9.028;2022-12-28T11:14:13;7.40;99.90
8947;DHT22;4508;48.790;9.028;2022-12-28T11:16:41;8.10;99.90
8947;DHT22;4508;48.790;9.028;2022-12-28T11:19:09;8.10;99.90
8947;DHT22;4508;48.790;9.028;2022-12-28T11:21:36;8.10;99.90
8947;DHT22;4508;48.790;9.028;2022-12-28T11:24:05;7.90;99.90
8947;DHT22;4508;48.790;9.028;2022-12-28T11:26:32;8.00;99.90
8947;DHT22;4508;48.790;9.028;2022-12-28T11:29:00;7.90;99.90
8947;DHT22;4508;48.790;9.028;2022-12-28T11:31:32;8.10;99.90
8947;DHT22;4508;48.790;9.028;2022-12-28T11:34:01;8.40;99.90
8947;DHT22;4508;48.790;9.028;2022-12-28T11:39:39;8.10;99.90
8947;DHT22;4508;48.790;9.028;2022-12-28T11:42:07;8.10;99.90
8947;DHT22;4508;48.790;9.028;2022-12-28T11:44:49;8.10;99.90
8947;DHT22;4508;48.790;9.028;2022-12-28T11:47:23;8.10;99.90
8947;DHT22;4508;48.790;9.028;2022-12-28T11:53:02;8.20;99.90
8947;DHT22;4508;48.790;9.028;2022-12-28T11:59:02;8.50;99.90
8947;DHT22;4508;48.790;9.028;2022-12-28T12:01:57;8.40;99.90
8947;DHT22;4508;48.790;9.028;2022-12-28T12:04:39;8.60;99.90
8947;DHT22;4508;48.790;9.028;2022-12-28T12:07:14;8.30;99.90
8947;DHT22;4508;48.790;9.028;2022-12-28T12:09:43;8.50;99.90
8947;DHT22;4508;48.790;9.028;2022-12-28T12:12:34;8.40;99.90
8947;DHT22;4508;48.790;9.028;2022-12-28T12:15:08;8.30;99.90
8947;DHT22;4508;48.790;9.028;2022-12-28T12:17:40;8.40;99.90
8947;DHT22;4508;48.790;9.028;2022-12-28T12:20:19;8.30;99.90
8947;DHT22;4508;48.790;9.028;2022-12-28T12:22:51;8.30;99.90
8947;DHT22;4508;48.790;9.028;2022-12-28T12:25:23;8.60;99.90
8947;DHT22;4508;48.790;9.028;2022-12-28T12:27:57;9.30;99.90
8947;DHT22;4508;48.790;9.028;2022-12-28T12:30:24;9.50;99.90
8947;DHT22;4508;48.790;9.028;2022-12-28T12:32:54;9.40;99.90
8947;DHT22;4508;48.790;9.028;2022-12-28T12:35:23;9.00;99.90
8947;DHT22;4508;48.790;9.028;2022-12-28T12:37:54;9.00;99.90
8947;DHT22;4508;48.790;9.028;2022-12-28T12:40:47;9.00;99.90
8947;DHT22;4508;48.790;9.028;2022-12-28T12:43:26;9.20;99.90
8947;DHT22;4508;48.790;9.028;2022-12-28T12:46:02;8.60;99.90
8947;DHT22;4508;48.790;9.028;2022-12-28T12:51:38;8.60;99.90
8947;DHT22;4508;48.790;9.028;2022-12-28T12:54:20;8.40;99.90
8947;DHT22;4508;48.790;9.028;2022-12-28T12:56:52;8.50;99.90
8947;DHT22;4508;48.790;9.028;2022-12-28T12:59:37;8.40;99.90
8947;DHT22;4508;48.790;9.028;2022-12-28T13:02:22;8.20;99.90
8947;DHT22;4508;48.790;9.028;2022-12-28T13:04:50;8.30;99.90
8947;DHT22;4508;48.790;9.028;2022-12-28T13:07:19;8.40;99.90
8947;DHT22;4508;48.790;9.028;2022-12-28T13:09:48;8.10;99.90
8947;DHT22;4508;48.790;9.028;2022-12-28T13:12:17;8.10;99.90
8947;DHT22;4508;48.790;9.028;2022-12-28T13:14:47;8.10;99.90
8947;DHT22;4508;48.790;9.028;2022-12-28T13:17:17;8.00;99.90
8947;DHT22;4508;48.790;9.028;2022-12-28T13:19:45;7.90;99.90
8947;DHT22;4508;48.790;9.028;2022-12-28T13:22:25;8.80;99.90
8947;DHT22;4508;48.790;9.028;2022-12-28T13:24:52;7.80;99.90
8947;DHT22;4508;48.790;9.028;2022-12-28T13:27:19;7.90;99.90
8947;DHT22;4508;48.790;9.028;2022-12-28T13:29:52;7.50;99.90
8947;DHT22;4508;48.790;9.028;2022-12-28T13:32:25;7.90;99.90
8947;DHT22;4508;48.790;9.028;2022-12-28T13:34:52;7.90;99.90
8947;DHT22;4508;48.790;9.028;2022-12-28T13:37:19;7.90;99.90
8947;DHT22;4508;48.790;9.028;2022-12-28T13:39:46;7.90;99.90
8947;DHT22;4508;48.790;9.028;2022-12-28T13:42:16;7.80;99.90
8947;DHT22;4508;48.790;9.028;2022-12-28T13:44:44;7.80;99.90
8947;DHT22;4508;48.790;9.028;2022-12-28T13:47:19;7.90;99.90
8947;DHT22;4508;48.790;9.028;2022-12-28T13:49:52;7.90;99.90
8947;DHT22;4508;48.790;9.028;2022-12-28T13:52:22;7.90;99.90
8947;DHT22;4508;48.790;9.028;2022-12-28T13:57:21;7.90;99.90
8947;DHT22;4508;48.790;9.028;2022-12-28T13:59:49;7.90;99.90
8947;DHT22;4508;48.790;9.028;2022-12-28T14:02:19;7.80;99.90
8947;DHT22;4508;48.790;9.028;2022-12-28T14:04:49;7.90;99.90
8947;DHT22;4508;48.790;9.028;2022-12-28T14:07:17;7.80;99.90
8947;DHT22;4508;48.790;9.028;2022-12-28T14:09:45;7.80;99.90
8947;DHT22;4508;48.790;9.028;2022-12-28T14:12:13;7.90;99.90
8947;DHT22;4508;48.790;9.028;2022-12-28T14:14:41;7.90;99.90
8947;DHT22;4508;48.790;9.028;2022-12-28T14:17:09;7.90;99.90
8947;DHT22;4508;48.790;9.028;2022-12-28T14:19:37;7.80;99.90
8947;DHT22;4508;48.790;9.028;2022-12-28T14:22:26;7.80;99.90
8947;DHT22;4508;48.790;9.028;2022-12-28T14:25:01;7.70;99.90
8947;DHT22;4508;48.790;9.028;2022-12-28T14:27:28;7.90;99.90
8947;DHT22;4508;48.790;9.028;2022-12-28T14:29:56;7.80;99.90
8947;DHT22;4508;48.790;9.028;2022-12-28T14:32:23;7.80;99.90
8947;DHT22;4508;48.790;9.028;2022-12-28T14:34:55;7.70;99.90
8947;DHT22;4508;48.790;9.028;2022-12-28T14:37:25;7.80;99.90
8947;DHT22;4508;48.790;9.028;2022-12-28T14:39:58;7.80;99.90
8947;DHT22;4508;48.790;9.028;2022-12-28T14:42:26;7.80;99.90
8947;DHT22;4508;48.790;9.028;2022-12-28T14:44:53;7.70;99.90
8947;DHT22;4508;48.790;9.028;2022-12-28T14:47:34;7.80;99.90
8947;DHT22;4508;48.790;9.028;2022-12-28T14:50:11;7.60;99.90
8947;DHT22;4508;48.790;9.028;2022-12-28T14:52:44;7.70;99.90
8947;DHT22;4508;48.790;9.028;2022-12-28T14:55:20;7.70;99.90
8947;DHT22;4508;48.790;9.028;2022-12-28T14:57:48;7.80;99.90
8947;DHT22;4508;48.790;9.028;2022-12-28T15:00:23;7.40;99.90
8947;DHT22;4508;48.790;9.028;2022-12-28T15:02:50;7.80;99.90
8947;DHT22;4508;48.790;9.028;2022-12-28T15:05:38;7.70;99.90
8947;DHT22;4508;48.790;9.028;2022-12-28T15:08:06;7.70;99.90
8947;DHT22;4508;48.790;9.028;2022-12-28T15:10:37;7.70;99.90
8947;DHT22;4508;48.790;9.028;2022-12-28T15:13:04;7.60;99.90
8947;DHT22;4508;48.790;9.028;2022-12-28T15:15:31;7.60;99.90
8947;DHT22;4508;48.790;9.028;2022-12-28T15:17:58;7.60;99.90
8947;DHT22;4508;48.790;9.028;2022-12-28T15:20:24;7.50;99.90
8947;DHT22;4508;48.790;9.028;2022-12-28T15:22:52;7.70;99.90
8947;DHT22;4508;48.790;9.028;2022-12-28T15:25:19;7.60;99.90
8947;DHT22;4508;48.790;9.028;2022-12-28T15:27:48;7.50;99.90
8947;DHT22;4508;48.790;9.028;2022-12-28T15:30:15;7.50;99.90
8947;DHT22;4508;48.790;9.028;2022-12-28T15:32:42;7.50;99.90
8947;DHT22;4508;48.790;9.028;2022-12-28T15:35:09;7.40;99.90
8947;DHT22;4508;48.790;9.028;2022-12-28T15:37:35;7.40;99.90
8947;DHT22;4508;48.790;9.028;2022-12-28T15:40:05;7.40;99.90
8947;DHT22;4508;48.790;9.028;2022-12-28T15:42:31;7.40;99.90
8947;DHT22;4508;48.790;9.028;2022-12-28T15:44:58;7.40;99.90
8947;DHT22;4508;48.790;9.028;2022-12-28T15:47:25;7.40;99.90
8947;DHT22;4508;48.790;9.028;2022-12-28T15:49:51;7.40;99.90
8947;DHT22;4508;48.790;9.028;2022-12-28T15:54:45;7.50;99.90
8947;DHT22;4508;48.790;9.028;2022-12-28T15:57:13;7.30;99.90
8947;DHT22;4508;48.790;9.028;2022-12-28T15:59:40;7.10;99.90
8947;DHT22;4508;48.790;9.028;2022-12-28T16:02:08;7.30;99.90
8947;DHT22;4508;48.790;9.028;2022-12-28T16:04:35;7.20;99.90
8947;DHT22;4508;48.790;9.028;2022-12-28T16:07:02;7.40;99.90
8947;DHT22;4508;48.790;9.028;2022-12-28T16:09:28;7.40;99.90
8947;DHT22;4508;48.790;9.028;2022-12-28T16:11:55;7.30;99.90
8947;DHT22;4508;48.790;9.028;2022-12-28T16:14:23;7.30;99.90
8947;DHT22;4508;48.790;9.028;2022-12-28T16:16:50;7.50;99.90
8947;DHT22;4508;48.790;9.028;2022-12-28T16:19:16;7.50;99.90
8947;DHT22;4508;48.790;9.028;2022-12-28T16:21:43;7.40;99.90
8947;DHT22;4508;48.790;9.028;2022-12-28T16:24:10;7.20;99.90
8947;DHT22;4508;48.790;9.028;2022-12-28T16:26:37;7.30;99.90
8947;DHT22;4508;48.790;9.028;2022-12-28T16:29:03;7.70;99.90
8947;DHT22;4508;48.790;9.028;2022-12-28T16:31:33;7.40;99.90
8947;DHT22;4508;48.790;9.028;2022-12-28T16:34:01;7.40;99.90
8947;DHT22;4508;48.790;9.028;2022-12-28T16:36:29;7.40;99.90
8947;DHT22;4508;48.790;9.028;2022-12-28T16:38:56;7.50;99.90
8947;DHT22;4508;48.790;9.028;2022-12-28T16:41:23;7.40;99.90
8947;DHT22;4508;48.790;9.028;2022-12-28T16:43:51;7.40;99.90
8947;DHT22;4508;48.790;9.028;2022-12-28T16:46:18;7.40;99.90
8947;DHT22;4508;48.790;9.028;2022-12-28T16:48:46;7.30;99.90
8947;DHT22;4508;48.790;9.028;2022-12-28T16:51:12;7.30;99.90
8947;DHT22;4508;48.790;9.028;2022-12-28T16:53:39;7.40;99.90
8947;DHT22;4508;48.790;9.028;2022-12-28T16:56:06;7.60;99.90
8947;DHT22;4508;48.790;9.028;2022-12-28T16:58:33;7.40;99.90
8947;DHT22;4508;48.790;9.028;2022-12-28T17:01:04;7.50;99.90